createdAt,value
2019-03-24T00:00:24.736Z,7.03
2019-03-24T00:02:54.981Z,6.07
2019-03-24T00:05:25.145Z,5.93
2019-03-24T00:07:56.902Z,5.60
2019-03-24T00:10:27.064Z,5.67
2019-03-24T00:12:57.481Z,7.20
2019-03-24T00:15:27.688Z,6.20
2019-03-24T00:17:57.939Z,6.03
2019-03-24T00:20:28.100Z,6.23
2019-03-24T00:22:58.166Z,5.00
2019-03-24T00:25:28.398Z,6.13
2019-03-24T00:27:58.906Z,6.00
2019-03-24T00:30:29.034Z,5.97
2019-03-24T00:32:59.136Z,5.30
2019-03-24T00:35:29.241Z,5.90
2019-03-24T00:37:59.301Z,5.83
2019-03-24T00:40:29.372Z,5.20
2019-03-24T00:42:59.690Z,5.93
2019-03-24T00:45:36.840Z,5.60
2019-03-24T00:48:01.699Z,4.90
2019-03-24T00:50:31.904Z,6.57
2019-03-24T00:53:02.049Z,5.43
2019-03-24T00:55:32.187Z,4.40
2019-03-24T00:58:03.018Z,4.77
2019-03-24T01:00:57.706Z,5.47
2019-03-24T01:03:27.829Z,5.97
2019-03-24T01:05:57.865Z,6.27
2019-03-24T01:08:27.936Z,4.20
2019-03-24T01:10:58.043Z,5.60
2019-03-24T01:13:28.194Z,6.30
2019-03-24T01:15:58.315Z,6.13
2019-03-24T01:18:28.396Z,6.20
2019-03-24T01:20:58.609Z,5.27
2019-03-24T01:23:28.850Z,5.87
2019-03-24T01:25:58.867Z,5.80
2019-03-24T01:28:29.167Z,5.23
2019-03-24T01:30:59.307Z,5.87
2019-03-24T01:33:29.403Z,5.80
2019-03-24T01:35:59.493Z,5.70
2019-03-24T01:38:29.466Z,4.70
2019-03-24T01:40:59.565Z,4.97
2019-03-24T01:43:30.254Z,5.50
2019-03-24T01:46:00.301Z,5.20
2019-03-24T01:48:30.475Z,4.63
2019-03-24T01:51:00.483Z,5.50
2019-03-24T01:53:30.711Z,4.87
2019-03-24T01:56:00.894Z,5.53
2019-03-24T01:58:31.518Z,5.60
2019-03-24T02:01:01.745Z,4.60
2019-03-24T02:03:31.838Z,5.03
2019-03-24T02:06:01.857Z,4.93
2019-03-24T02:08:31.959Z,4.50
2019-03-24T02:11:02.220Z,5.90
2019-03-24T02:13:33.007Z,5.87
2019-03-24T02:16:09.330Z,4.53
2019-03-24T02:18:34.899Z,4.57
2019-03-24T02:21:04.959Z,5.20
2019-03-24T02:23:35.092Z,5.17
2019-03-24T02:26:05.145Z,4.37
2019-03-24T02:28:35.324Z,5.13
2019-03-24T02:31:05.481Z,5.10
2019-03-24T02:33:35.671Z,4.43
2019-03-24T02:36:05.824Z,4.73
2019-03-24T02:38:35.927Z,5.73
2019-03-24T02:41:06.000Z,5.57
2019-03-24T02:43:36.424Z,5.47
2019-03-24T02:46:06.434Z,5.13
2019-03-24T02:48:36.604Z,4.30
2019-03-24T02:51:06.621Z,6.10
2019-03-24T02:53:36.731Z,5.93
2019-03-24T02:56:06.896Z,4.67
2019-03-24T02:58:37.532Z,5.40
2019-03-24T03:01:07.611Z,5.07
2019-03-24T03:03:37.646Z,5.80
2019-03-24T03:06:07.816Z,5.23
2019-03-24T03:08:37.880Z,4.80
2019-03-24T03:11:08.093Z,5.37
2019-03-24T03:13:38.397Z,6.37
2019-03-24T03:16:08.434Z,5.27
2019-03-24T03:18:38.499Z,5.93
2019-03-24T03:21:08.581Z,6.43
2019-03-24T03:23:38.591Z,5.27
2019-03-24T03:26:08.569Z,5.23
2019-03-24T03:28:38.850Z,5.03
2019-03-24T03:31:08.973Z,4.50
2019-03-24T03:33:39.134Z,5.03
2019-03-24T03:36:09.185Z,5.00
2019-03-24T03:38:39.222Z,4.50
2019-03-24T03:41:09.219Z,5.17
2019-03-24T03:43:39.755Z,5.17
2019-03-24T03:46:09.803Z,4.10
2019-03-24T03:48:39.897Z,5.50
2019-03-24T03:51:09.912Z,4.60
2019-03-24T03:53:40.028Z,4.80
2019-03-24T03:56:10.199Z,5.03
2019-03-24T03:58:40.597Z,5.13
2019-03-24T04:01:10.622Z,5.07
2019-03-24T04:03:40.669Z,5.07
2019-03-24T04:06:10.694Z,5.27
2019-03-24T04:08:40.806Z,5.20
2019-03-24T04:11:10.967Z,4.87
2019-03-24T04:13:41.233Z,4.30
2019-03-24T04:16:11.323Z,4.63
2019-03-24T04:18:41.437Z,5.23
2019-03-24T04:21:11.659Z,4.53
2019-03-24T04:23:41.781Z,4.93
2019-03-24T04:26:11.807Z,4.23
2019-03-24T04:28:42.119Z,5.33
2019-03-24T04:31:12.093Z,5.30
2019-03-24T04:33:42.074Z,4.90
2019-03-24T04:36:12.079Z,4.53
2019-03-24T04:38:42.154Z,4.43
2019-03-24T04:41:12.813Z,4.50
2019-03-24T04:43:42.954Z,5.17
2019-03-24T04:46:13.053Z,4.70
2019-03-24T04:48:43.106Z,5.30
2019-03-24T04:51:13.365Z,4.83
2019-03-24T04:53:43.428Z,4.93
2019-03-24T04:56:13.468Z,4.67
2019-03-24T04:58:43.592Z,5.10
2019-03-24T05:01:13.681Z,5.23
2019-03-24T05:03:43.725Z,4.67
2019-03-24T05:06:14.044Z,5.00
2019-03-24T05:08:44.934Z,4.60
2019-03-24T05:11:15.006Z,4.87
2019-03-24T05:13:45.583Z,4.70
2019-03-24T05:16:15.707Z,4.83
2019-03-24T05:18:45.772Z,4.70
2019-03-24T05:21:16.081Z,5.30
2019-03-24T05:23:46.226Z,4.70
2019-03-24T05:26:16.264Z,5.30
2019-03-24T05:28:46.402Z,6.03
2019-03-24T05:31:16.562Z,5.30
2019-03-24T05:33:46.625Z,5.23
2019-03-24T05:36:16.810Z,5.33
2019-03-24T05:38:46.858Z,4.90
2019-03-24T05:41:16.999Z,5.07
2019-03-24T05:43:47.396Z,5.57
2019-03-24T05:46:17.791Z,4.37
2019-03-24T05:48:48.121Z,5.67
2019-03-24T05:51:18.332Z,5.80
2019-03-24T05:53:48.539Z,4.50
2019-03-24T05:56:18.559Z,4.40
2019-03-24T05:58:48.983Z,4.63
2019-03-24T06:01:21.865Z,4.93
2019-03-24T06:03:52.027Z,6.23
2019-03-24T06:06:22.118Z,5.07
2019-03-24T06:08:52.104Z,4.70
2019-03-24T06:11:22.217Z,5.00
2019-03-24T06:13:52.407Z,4.73
2019-03-24T06:16:22.519Z,5.20
2019-03-24T06:18:52.678Z,5.33
2019-03-24T06:21:22.802Z,5.10
2019-03-24T06:23:52.835Z,5.07
2019-03-24T06:26:22.910Z,4.90
2019-03-24T06:28:53.060Z,5.50
2019-03-24T06:31:22.993Z,5.23
2019-03-24T06:33:52.998Z,5.63
2019-03-24T06:36:23.073Z,5.23
2019-03-24T06:38:53.213Z,4.53
2019-03-24T06:41:23.191Z,4.00
2019-03-24T06:43:53.588Z,5.23
2019-03-24T06:46:23.774Z,5.20
2019-03-24T06:48:53.985Z,4.67
2019-03-24T06:51:26.017Z,4.57
2019-03-24T06:53:56.539Z,4.83
2019-03-24T06:56:26.565Z,4.20
2019-03-24T06:58:56.829Z,4.43
2019-03-24T07:01:26.977Z,4.07
2019-03-24T07:03:57.168Z,4.90
2019-03-24T07:06:27.287Z,4.37
2019-03-24T07:08:57.735Z,4.60
2019-03-24T07:11:28.116Z,4.60
2019-03-24T07:13:58.142Z,4.53
2019-03-24T07:16:28.236Z,4.50
2019-03-24T07:18:58.292Z,5.33
2019-03-24T07:21:28.407Z,5.60
2019-03-24T07:24:00.526Z,5.00
2019-03-24T07:26:30.340Z,5.30
2019-03-24T07:29:01.027Z,5.13
2019-03-24T07:31:31.133Z,5.03
2019-03-24T07:34:01.202Z,5.13
2019-03-24T07:36:31.253Z,4.73
2019-03-24T07:39:01.373Z,5.90
2019-03-24T07:41:31.486Z,5.13
2019-03-24T07:44:02.160Z,4.63
2019-03-24T07:46:32.157Z,4.80
2019-03-24T07:49:02.256Z,4.20
2019-03-24T07:51:32.637Z,5.60
2019-03-24T07:54:04.284Z,4.60
2019-03-24T07:56:34.306Z,4.73
2019-03-24T07:59:04.662Z,4.80
2019-03-24T08:01:34.872Z,4.20
2019-03-24T08:04:06.016Z,5.30
2019-03-24T08:06:36.213Z,4.40
2019-03-24T08:09:07.478Z,5.33
2019-03-24T08:11:37.504Z,3.80
2019-03-24T08:14:07.838Z,4.50
2019-03-24T08:16:37.977Z,3.90
2019-03-24T08:19:08.037Z,4.30
2019-03-24T08:21:38.118Z,4.10
2019-03-24T08:24:08.372Z,4.20
2019-03-24T08:26:38.431Z,4.13
2019-03-24T08:29:08.741Z,5.23
2019-03-24T08:31:39.045Z,4.03
2019-03-24T08:34:09.053Z,4.70
2019-03-24T08:36:39.067Z,4.73
2019-03-24T08:39:09.162Z,3.70
2019-03-24T08:41:39.360Z,4.37
2019-03-24T08:44:09.904Z,5.27
2019-03-24T08:46:39.989Z,4.60
2019-03-24T08:49:10.125Z,5.00
2019-03-24T08:51:40.372Z,4.40
2019-03-24T08:54:10.738Z,4.50
2019-03-24T08:56:40.859Z,4.30
2019-03-24T08:59:11.221Z,4.00
2019-03-24T09:01:41.345Z,3.53
2019-03-24T09:04:11.332Z,4.13
2019-03-24T09:06:41.763Z,4.13
2019-03-24T09:09:11.936Z,4.13
2019-03-24T09:11:41.982Z,5.50
2019-03-24T09:14:12.180Z,4.70
2019-03-24T09:16:43.275Z,5.10
2019-03-24T09:19:13.608Z,4.50
2019-03-24T09:21:43.704Z,4.20
2019-03-24T09:24:13.718Z,4.63
2019-03-24T09:26:43.912Z,3.93
2019-03-24T09:29:14.312Z,4.83
2019-03-24T09:31:44.393Z,3.97
2019-03-24T09:34:14.558Z,3.50
2019-03-24T09:36:44.774Z,3.93
2019-03-24T09:39:14.894Z,4.63
2019-03-24T09:41:45.047Z,4.00
2019-03-24T09:44:15.723Z,4.40
2019-03-24T09:46:45.756Z,5.50
2019-03-24T09:49:15.891Z,3.57
2019-03-24T09:51:46.071Z,4.90
2019-03-24T09:54:16.232Z,4.20
2019-03-24T09:56:46.554Z,5.13
2019-03-24T09:59:16.600Z,5.77
2019-03-24T10:01:46.899Z,5.40
2019-03-24T10:04:17.142Z,5.17
2019-03-24T10:06:47.324Z,4.63
2019-03-24T10:09:17.388Z,5.17
2019-03-24T10:11:49.123Z,4.37
2019-03-24T10:14:19.691Z,4.93
2019-03-24T10:16:50.598Z,4.60
2019-03-24T10:19:21.105Z,4.70
2019-03-24T10:21:53.014Z,5.87
2019-03-24T10:24:23.109Z,4.97
2019-03-24T10:26:53.532Z,4.50
2019-03-24T10:29:23.835Z,4.83
2019-03-24T10:31:54.221Z,4.30
2019-03-24T10:34:24.981Z,3.90
2019-03-24T10:36:55.291Z,5.47
2019-03-24T10:39:26.429Z,3.40
2019-03-24T10:41:56.810Z,4.13
2019-03-24T10:44:27.829Z,3.33
2019-03-24T10:46:58.036Z,3.97
2019-03-24T10:49:28.390Z,3.73
2019-03-24T10:51:58.619Z,4.20
2019-03-24T10:54:28.630Z,3.80
2019-03-24T10:56:58.756Z,3.83
2019-03-24T10:59:29.005Z,4.33
2019-03-24T11:01:59.370Z,4.20
2019-03-24T11:04:31.470Z,3.10
2019-03-24T11:07:01.589Z,3.13
2019-03-24T11:09:31.640Z,3.70
2019-03-24T11:12:01.733Z,3.90
2019-03-24T11:14:31.685Z,3.40
2019-03-24T11:17:01.750Z,3.80
2019-03-24T11:19:35.890Z,4.10
2019-03-24T11:22:03.865Z,3.43
2019-03-24T11:24:33.968Z,3.40
2019-03-24T11:27:04.191Z,3.50
2019-03-24T11:29:34.419Z,3.13
2019-03-24T11:32:04.779Z,3.70
2019-03-24T11:34:34.876Z,3.53
2019-03-24T11:37:04.934Z,4.27
2019-03-24T11:39:35.331Z,3.07
2019-03-24T11:42:05.653Z,4.20
2019-03-24T11:44:36.265Z,3.57
2019-03-24T11:47:06.383Z,3.40
2019-03-24T11:49:45.755Z,3.20
2019-03-24T11:52:08.322Z,2.30
2019-03-24T11:54:38.516Z,2.53
2019-03-24T11:57:08.553Z,2.83
2019-03-24T11:59:38.690Z,3.33
2019-03-24T12:02:08.850Z,2.67
2019-03-24T12:04:38.999Z,2.50
2019-03-24T12:07:09.175Z,3.47
2019-03-24T12:09:39.548Z,2.27
2019-03-24T12:18:53.491Z,2.70
2019-03-24T12:21:23.597Z,2.07
2019-03-24T12:23:54.020Z,4.30
2019-03-24T12:26:24.157Z,2.47
2019-03-24T12:28:54.338Z,2.77
2019-03-24T12:31:24.563Z,3.10
2019-03-24T12:33:54.560Z,3.67
2019-03-24T12:36:24.853Z,3.57
2019-03-24T12:38:55.066Z,4.17
2019-03-24T12:41:25.108Z,3.10
2019-03-24T12:43:55.222Z,3.07
2019-03-24T12:46:25.518Z,3.43
2019-03-24T12:48:55.554Z,3.03
2019-03-24T12:51:25.651Z,4.63
2019-03-24T12:53:55.690Z,2.43
2019-03-24T12:56:25.964Z,2.20
2019-03-24T12:58:56.295Z,2.20
2019-03-24T13:01:26.601Z,2.27
2019-03-24T13:03:56.848Z,2.40
2019-03-24T13:06:27.227Z,1.90
2019-03-24T13:08:57.637Z,2.03
2019-03-24T13:11:27.945Z,2.80
2019-03-24T13:13:58.153Z,2.80
2019-03-24T13:16:28.255Z,3.57
2019-03-24T13:18:58.279Z,2.43
2019-03-24T13:21:28.605Z,2.00
2019-03-24T13:23:58.663Z,2.73
2019-03-24T13:26:28.722Z,3.00
2019-03-24T13:28:58.893Z,3.20
2019-03-24T13:31:29.353Z,2.60
2019-03-24T13:33:59.859Z,6.13
2019-03-24T13:36:30.462Z,3.50
2019-03-24T13:39:00.510Z,3.57
2019-03-24T13:41:30.682Z,3.47
2019-03-24T13:44:01.001Z,2.27
2019-03-24T13:46:31.478Z,2.07
2019-03-24T13:49:01.836Z,2.73
2019-03-24T13:51:32.279Z,3.13
2019-03-24T13:54:02.733Z,3.03
2019-03-24T13:56:32.967Z,3.30
2019-03-24T13:59:03.223Z,3.07
2019-03-24T14:01:33.858Z,2.20
2019-03-24T14:04:04.298Z,2.37
2019-03-24T14:06:34.781Z,3.40
2019-03-24T14:09:07.500Z,1.50
2019-03-24T14:11:37.837Z,2.23
2019-03-24T14:14:08.200Z,1.60
2019-03-24T14:16:38.340Z,1.70
2019-03-24T14:19:08.616Z,1.83
2019-03-24T14:21:38.792Z,1.87
2019-03-24T14:24:08.998Z,1.43
2019-03-24T14:26:39.013Z,1.17
2019-03-24T14:29:09.090Z,1.40
2019-03-24T14:31:39.220Z,1.80
2019-03-24T14:34:09.318Z,1.57
2019-03-24T14:36:39.482Z,1.10
2019-03-24T14:39:09.881Z,1.43
2019-03-24T14:41:40.178Z,1.40
2019-03-24T14:44:11.307Z,1.47
2019-03-24T14:46:41.693Z,1.47
2019-03-24T14:49:11.897Z,1.47
2019-03-24T14:51:42.229Z,1.40
2019-03-24T14:54:12.505Z,1.23
2019-03-24T14:56:43.027Z,1.83
2019-03-24T14:59:13.054Z,1.23
2019-03-24T15:01:43.423Z,1.40
2019-03-24T15:04:13.550Z,1.30
2019-03-24T15:06:43.821Z,1.50
2019-03-24T15:09:13.909Z,1.67
2019-03-24T15:11:44.124Z,1.57
2019-03-24T15:14:14.126Z,2.13
2019-03-24T15:16:44.594Z,1.73
2019-03-24T15:19:14.980Z,1.40
2019-03-24T15:21:45.277Z,1.50
2019-03-24T15:24:15.363Z,1.40
2019-03-24T15:26:45.800Z,1.70
2019-03-24T15:29:15.882Z,2.30
2019-03-24T15:31:46.128Z,1.90
2019-03-24T15:34:16.277Z,1.77
2019-03-24T15:36:46.420Z,2.10
2019-03-24T15:39:16.616Z,1.67
2019-03-24T15:41:46.794Z,2.10
2019-03-24T15:44:16.853Z,2.17
2019-03-24T15:46:47.360Z,2.60
2019-03-24T15:49:17.573Z,2.13
2019-03-24T15:51:47.913Z,2.30
2019-03-24T15:54:18.090Z,1.97
2019-03-24T15:56:48.206Z,2.13
2019-03-24T15:59:18.514Z,2.63
2019-03-24T16:01:48.902Z,2.57
2019-03-24T16:04:19.136Z,2.90
2019-03-24T16:06:49.337Z,2.00
2019-03-24T16:09:19.573Z,2.50
2019-03-24T16:11:49.914Z,3.60
2019-03-24T16:14:20.098Z,2.80
2019-03-24T16:16:50.255Z,2.37
2019-03-24T16:19:20.506Z,1.80
2019-03-24T16:21:50.662Z,2.50
2019-03-24T16:24:20.842Z,2.27
2019-03-24T16:26:51.488Z,2.30
2019-03-24T16:29:21.941Z,2.50
2019-03-24T16:31:52.444Z,2.20
2019-03-24T16:34:22.558Z,2.30
2019-03-24T16:36:52.809Z,2.23
2019-03-24T16:39:22.959Z,1.90
2019-03-24T16:41:53.244Z,2.30
2019-03-24T16:44:23.720Z,2.50
2019-03-24T16:46:54.440Z,2.50
2019-03-24T16:49:24.721Z,2.23
2019-03-24T16:51:54.868Z,2.80
2019-03-24T16:54:25.291Z,2.77
2019-03-24T16:56:55.860Z,2.20
2019-03-24T16:59:26.277Z,2.40
2019-03-24T17:01:56.800Z,2.53
2019-03-24T17:04:27.002Z,2.60
2019-03-24T17:06:57.201Z,1.87
2019-03-24T17:09:27.460Z,2.37
2019-03-24T17:11:57.513Z,2.33
2019-03-24T17:14:27.656Z,2.10
2019-03-24T17:16:58.182Z,2.53
2019-03-24T17:19:28.538Z,1.70
2019-03-24T17:21:58.891Z,1.00
2019-03-24T17:24:29.127Z,1.03
2019-03-24T17:26:59.375Z,1.00
2019-03-24T17:29:29.445Z,0.80
2019-03-24T17:32:00.044Z,0.90
2019-03-24T17:34:30.349Z,0.90
2019-03-24T17:37:00.606Z,0.87
2019-03-24T17:39:30.874Z,0.93
2019-03-24T17:42:01.198Z,0.70
2019-03-24T17:44:31.816Z,0.93
2019-03-24T17:47:02.696Z,0.90
2019-03-24T17:49:33.025Z,1.03
2019-03-24T17:52:03.455Z,1.03
2019-03-24T17:54:35.215Z,1.10
2019-03-24T17:57:05.644Z,0.80
2019-03-24T17:59:36.044Z,1.10
2019-03-24T18:02:14.146Z,1.10
2019-03-24T18:04:38.497Z,1.47
2019-03-24T18:07:08.707Z,1.03
2019-03-24T18:09:39.253Z,1.30
2019-03-24T18:12:09.539Z,1.93
2019-03-24T18:14:39.959Z,1.90
2019-03-24T18:17:10.587Z,1.20
2019-03-24T18:19:40.803Z,1.60
2019-03-24T18:22:11.850Z,1.60
2019-03-24T18:24:42.383Z,1.60
2019-03-24T18:27:12.855Z,2.00
2019-03-24T18:29:43.040Z,1.50
2019-03-24T18:32:13.384Z,1.47
2019-03-24T18:34:44.400Z,1.70
2019-03-24T18:37:14.877Z,1.93
2019-03-24T18:39:45.407Z,1.83
2019-03-24T18:42:15.930Z,1.80
2019-03-24T18:44:46.029Z,1.60
2019-03-24T18:47:16.479Z,2.10
2019-03-24T18:49:46.908Z,2.10
2019-03-24T18:52:22.724Z,1.67
2019-03-24T18:54:49.237Z,1.90
2019-03-24T18:57:19.636Z,2.53
2019-03-24T18:59:50.001Z,2.10
2019-03-24T19:02:20.439Z,1.60
2019-03-24T19:04:50.836Z,2.00
2019-03-24T19:07:21.393Z,1.83
2019-03-24T19:09:51.874Z,1.77
2019-03-24T19:12:22.031Z,1.83
2019-03-24T19:14:52.213Z,2.40
2019-03-24T19:17:22.703Z,2.83
2019-03-24T19:19:53.219Z,1.80
2019-03-24T19:22:33.249Z,1.67
2019-03-24T19:24:57.059Z,1.90
2019-03-24T19:27:27.272Z,1.80
2019-03-24T19:29:58.100Z,2.93
2019-03-24T19:32:29.060Z,2.20
2019-03-24T19:34:59.502Z,1.80
2019-03-24T19:37:29.797Z,2.47
2019-03-24T19:40:00.697Z,2.00
2019-03-24T19:42:31.277Z,2.20
2019-03-24T19:45:01.563Z,1.77
2019-03-24T19:47:32.192Z,1.93
2019-03-24T19:50:02.544Z,1.80
2019-03-24T19:52:32.964Z,1.87
2019-03-24T19:55:03.298Z,1.57
2019-03-24T19:57:33.793Z,1.70
2019-03-24T20:00:04.515Z,2.20
2019-03-24T20:02:35.043Z,2.10
2019-03-24T20:05:05.387Z,2.60
2019-03-24T20:07:35.759Z,2.00
2019-03-24T20:10:06.220Z,1.83
2019-03-24T20:12:36.694Z,2.10
2019-03-24T20:15:07.700Z,1.90
2019-03-24T20:17:38.060Z,2.33
2019-03-24T20:20:08.749Z,2.07
2019-03-24T20:22:39.120Z,2.00
2019-03-24T20:25:09.516Z,1.93
2019-03-24T20:27:39.972Z,2.00
2019-03-24T20:30:11.412Z,2.03
2019-03-24T20:32:41.589Z,1.80
2019-03-24T20:35:13.389Z,1.93
2019-03-24T20:37:43.613Z,2.17
2019-03-24T20:40:14.244Z,2.10
2019-03-24T20:42:44.302Z,2.40
2019-03-24T20:45:15.036Z,2.33
2019-03-24T20:47:45.966Z,2.80
2019-03-24T20:50:16.658Z,2.30
2019-03-24T20:52:46.990Z,2.03
2019-03-24T20:55:19.442Z,2.23
2019-03-24T20:57:51.490Z,2.30
2019-03-24T21:00:37.727Z,2.57
2019-03-24T21:03:09.482Z,2.40
2019-03-24T21:05:40.165Z,2.57
2019-03-24T21:08:10.512Z,2.27
2019-03-24T21:10:40.662Z,1.80
2019-03-24T21:13:11.131Z,1.80
2019-03-24T21:15:41.431Z,2.20
2019-03-24T21:18:11.750Z,2.17
2019-03-24T21:20:42.202Z,1.63
2019-03-24T21:23:12.506Z,2.20
2019-03-24T21:25:42.794Z,2.20
2019-03-24T21:28:12.957Z,2.10
2019-03-24T21:30:43.424Z,2.10
2019-03-24T21:33:13.905Z,2.07
2019-03-24T21:35:44.230Z,2.13
2019-03-24T21:38:14.513Z,3.10
2019-03-24T21:40:45.198Z,2.10
2019-03-24T21:43:15.691Z,2.00
2019-03-24T21:45:45.790Z,2.13
2019-03-24T21:48:16.416Z,2.70
2019-03-24T21:50:46.713Z,2.10
2019-03-24T21:53:16.987Z,2.70
2019-03-24T21:55:47.118Z,2.50
2019-03-24T21:58:17.271Z,2.70
2019-03-24T22:00:47.479Z,2.70
2019-03-24T22:03:18.108Z,2.40
2019-03-24T22:05:48.506Z,2.77
2019-03-24T22:08:19.205Z,2.57
2019-03-24T22:10:49.432Z,2.87
2019-03-24T22:13:19.861Z,2.33
2019-03-24T22:15:50.254Z,2.37
2019-03-24T22:18:20.676Z,2.60
2019-03-24T22:20:50.807Z,2.87
2019-03-24T22:23:21.347Z,2.63
2019-03-24T22:25:51.771Z,2.77
2019-03-24T22:28:22.111Z,2.70
2019-03-24T22:30:52.545Z,3.20
2019-03-24T22:33:22.896Z,2.90
2019-03-24T22:35:53.003Z,3.10
2019-03-24T22:38:23.250Z,3.33
2019-03-24T22:40:53.603Z,3.50
2019-03-24T22:43:24.027Z,2.50
2019-03-24T22:45:54.163Z,2.87
2019-03-24T22:48:24.775Z,2.87
2019-03-24T22:50:55.014Z,2.93
2019-03-24T22:53:25.328Z,3.20
2019-03-24T22:55:55.561Z,2.60
2019-03-24T22:58:25.854Z,2.57
2019-03-24T23:00:56.899Z,2.50
2019-03-24T23:03:27.838Z,2.77
2019-03-24T23:05:58.085Z,2.73
2019-03-24T23:08:28.361Z,2.90
2019-03-24T23:10:58.603Z,2.97
2019-03-24T23:13:29.199Z,3.37
2019-03-24T23:15:59.621Z,2.80
2019-03-24T23:18:29.956Z,3.63
2019-03-24T23:21:00.119Z,2.90
2019-03-24T23:23:30.338Z,2.90
2019-03-24T23:26:00.740Z,3.20
2019-03-24T23:28:31.243Z,2.97
2019-03-24T23:31:01.505Z,3.10
2019-03-24T23:33:31.911Z,3.00
2019-03-24T23:36:02.608Z,3.07
2019-03-24T23:38:32.915Z,2.87
2019-03-24T23:41:03.311Z,3.20
2019-03-24T23:43:33.667Z,2.97
2019-03-24T23:46:04.205Z,3.00
2019-03-24T23:48:34.958Z,3.17
2019-03-24T23:51:05.197Z,3.00
2019-03-24T23:53:35.504Z,3.07
2019-03-24T23:56:06.636Z,3.00
2019-03-24T23:58:41.088Z,2.70
